Time;durP1;ratioP1;P1;durP2;ratioP2;P2;SDS_P1;SDS_P2;PMS_P1;PMS_P2;Temp;Humidity;BMP_temperature;BMP_pressure;BME280_temperature;BME280_humidity;BME280_pressure;Samples;Min_cycle;Max_cycle;Signal;HPM_P1;HPM_P2
2022/02/17 00:01:56;;;;;;;95.22;70.68;;;;;;;-0.42;100.00;100917.59;5027787;28;20061;-79
2022/02/17 00:04:23;;;;;;;90.85;69.88;;;;;;;-0.63;100.00;100920.22;5030370;28;20053;-78
2022/02/17 00:06:49;;;;;;;76.38;68.22;;;;;;;-0.82;100.00;100913.06;5027393;28;20470;-79
2022/02/17 00:09:16;;;;;;;68.47;61.03;;;;;;;-0.86;100.00;100923.91;5020942;28;20054;-78
2022/02/17 00:11:43;;;;;;;66.85;56.97;;;;;;;-0.73;100.00;100929.75;5029121;28;20053;-80
2022/02/17 00:14:10;;;;;;;71.82;64.20;;;;;;;-0.73;100.00;100924.53;5027229;28;20042;-78
2022/02/17 00:16:37;;;;;;;80.95;65.90;;;;;;;-0.59;100.00;100926.00;5021304;28;20077;-78
2022/02/17 00:19:06;;;;;;;258.75;110.43;;;;;;;-0.52;100.00;100914.91;5028607;28;20126;-79
2022/02/17 00:21:32;;;;;;;150.32;83.53;;;;;;;-0.31;100.00;100924.50;5031156;28;20045;-79
2022/02/17 00:24:00;;;;;;;113.25;71.22;;;;;;;-1.13;100.00;100913.97;5030877;28;20119;-78
2022/02/17 00:26:27;;;;;;;137.88;86.10;;;;;;;-0.99;100.00;100914.47;5024478;28;20053;-80
2022/02/17 00:28:56;;;;;;;66.32;55.80;;;;;;;-1.31;100.00;100921.50;5027163;28;20050;-79
2022/02/17 00:31:23;;;;;;;71.18;61.60;;;;;;;-0.93;100.00;100913.16;5026005;28;20057;-80
2022/02/17 00:33:50;;;;;;;75.55;67.47;;;;;;;-0.76;100.00;100906.53;5031130;28;20041;-78
2022/02/17 00:36:18;;;;;;;81.45;63.95;;;;;;;-0.71;100.00;100899.16;5024271;28;20049;-79
2022/02/17 00:38:45;;;;;;;75.30;62.72;;;;;;;-0.73;100.00;100904.50;5027688;28;20111;-78
2022/02/17 00:41:12;;;;;;;76.75;67.43;;;;;;;-0.80;100.00;100894.72;5027199;28;20050;-79
2022/02/17 00:43:39;;;;;;;94.60;72.13;;;;;;;-0.90;100.00;100899.88;5027213;28;20058;-80
2022/02/17 00:46:05;;;;;;;74.03;65.93;;;;;;;-1.72;100.00;100895.22;5025570;28;20111;-80
2022/02/17 00:48:32;;;;;;;96.57;68.90;;;;;;;-0.92;100.00;100884.31;5020212;28;20045;-78
2022/02/17 00:50:59;;;;;;;124.07;76.85;;;;;;;-0.75;100.00;100882.13;5027415;28;20057;-79
2022/02/17 00:53:28;;;;;;;98.60;66.63;;;;;;;-1.11;100.00;100886.00;5034935;28;20473;-80
2022/02/17 00:55:55;;;;;;;85.03;69.97;;;;;;;-1.52;100.00;100879.75;5027654;28;20049;-78
2022/02/17 00:58:22;;;;;;;86.70;67.85;;;;;;;-0.96;100.00;100877.72;5026046;28;20115;-79
2022/02/17 01:00:49;;;;;;;136.38;82.35;;;;;;;-0.72;100.00;100876.63;5030455;28;20053;-78
2022/02/17 01:03:15;;;;;;;73.90;61.50;;;;;;;-1.07;100.00;100874.34;5021276;28;20058;-79
2022/02/17 01:05:42;;;;;;;110.10;74.53;;;;;;;-1.11;100.00;100879.00;5026108;28;20108;-78
2022/02/17 01:08:09;;;;;;;94.82;69.85;;;;;;;-1.33;100.00;100876.47;5028146;28;20065;-81
2022/02/17 01:10:37;;;;;;;83.07;58.35;;;;;;;-0.94;100.00;100875.81;5030978;28;20565;-80
2022/02/17 01:13:04;;;;;;;80.63;60.50;;;;;;;-0.93;100.00;100874.03;5029772;28;20532;-80
2022/02/17 01:15:31;;;;;;;82.60;61.60;;;;;;;-1.18;100.00;100878.69;5019857;28;20115;-78
2022/02/17 01:17:58;;;;;;;72.18;63.83;;;;;;;-1.25;100.00;100877.50;5026501;28;20057;-78
2022/02/17 01:20:25;;;;;;;70.53;56.78;;;;;;;-1.50;100.00;100878.69;5017137;28;20568;-78
2022/02/17 01:22:52;;;;;;;70.20;56.17;;;;;;;-1.57;100.00;100874.06;5024649;28;20474;-79
2022/02/17 01:25:19;;;;;;;86.47;65.40;;;;;;;-1.90;100.00;100868.84;5021724;28;20061;-80
2022/02/17 01:27:47;;;;;;;97.38;66.85;;;;;;;-1.67;100.00;100863.56;5024800;28;20053;-80
2022/02/17 01:30:14;;;;;;;105.35;68.90;;;;;;;-1.95;100.00;100865.78;5027033;28;20572;-80
2022/02/17 01:32:41;;;;;;;115.15;77.45;;;;;;;-1.59;100.00;100866.41;5026999;28;20050;-80
2022/02/17 01:35:08;;;;;;;121.47;78.32;;;;;;;-1.55;100.00;100857.38;5024608;28;20042;-78
2022/02/17 01:37:35;;;;;;;125.40;77.80;;;;;;;-1.51;100.00;100856.19;5023807;28;20061;-79
2022/02/17 01:40:02;;;;;;;117.10;77.45;;;;;;;-1.62;100.00;100853.63;5029401;28;20107;-79
2022/02/17 01:42:28;;;;;;;112.35;75.35;;;;;;;-1.48;100.00;100860.34;5022173;28;20087;-80
2022/02/17 01:44:57;;;;;;;128.07;79.18;;;;;;;-1.39;100.00;100843.94;5032328;28;20053;-80
2022/02/17 01:47:23;;;;;;;119.28;77.45;;;;;;;-1.08;100.00;100852.66;5027583;28;20049;-79
2022/02/17 01:49:50;;;;;;;117.63;75.30;;;;;;;-1.46;100.00;100846.19;5021594;28;20046;-79
2022/02/17 01:52:18;;;;;;;116.78;75.20;;;;;;;-1.68;100.00;100844.50;5025187;28;20054;-79
2022/02/17 01:54:47;;;;;;;131.52;80.93;;;;;;;-1.57;100.00;100846.28;5030017;28;20073;-77
2022/02/17 01:57:16;;;;;;;113.70;75.65;;;;;;;-1.76;100.00;100841.69;5024760;28;20053;-81
2022/02/17 01:59:44;;;;;;;103.45;72.93;;;;;;;-1.64;100.00;100843.31;5020756;28;20054;-80
2022/02/17 02:02:13;;;;;;;88.32;65.32;;;;;;;-1.68;100.00;100836.69;5026334;28;20042;-79
2022/02/17 02:04:39;;;;;;;85.25;65.88;;;;;;;-1.56;100.00;100844.47;5021400;28;20076;-79
2022/02/17 02:07:07;;;;;;;90.32;66.13;;;;;;;-1.61;100.00;100847.44;5026880;28;20119;-79
2022/02/17 02:09:35;;;;;;;95.72;72.38;;;;;;;-1.41;100.00;100854.47;5024683;28;20052;-78
2022/02/17 02:12:02;;;;;;;114.22;79.15;;;;;;;-1.03;100.00;100853.13;5028313;28;20069;-80
2022/02/17 02:14:29;;;;;;;86.55;64.10;;;;;;;-1.20;100.00;100846.69;5027949;28;20493;-80
2022/02/17 02:16:57;;;;;;;89.03;67.78;;;;;;;-1.48;100.00;100850.72;5029591;28;20111;-80
2022/02/17 02:19:25;;;;;;;85.63;64.28;;;;;;;-1.42;100.00;100845.03;5025282;28;20061;-79
2022/02/17 02:21:53;;;;;;;84.85;71.03;;;;;;;-1.50;100.00;100836.16;5018862;28;20494;-79
2022/02/17 02:24:20;;;;;;;83.68;74.63;;;;;;;-1.37;100.00;100839.41;5027266;28;20049;-80
2022/02/17 02:26:47;;;;;;;75.15;67.03;;;;;;;-1.59;100.00;100836.91;5024737;28;20049;-81
2022/02/17 02:29:15;;;;;;;68.03;58.58;;;;;;;-1.54;100.00;100843.41;5025265;28;20126;-77
2022/02/17 02:31:41;;;;;;;73.05;64.93;;;;;;;-1.47;100.00;100841.13;5026436;28;20114;-80
2022/02/17 02:34:08;;;;;;;61.83;55.95;;;;;;;-1.66;100.00;100840.03;5025600;28;20115;-80
2022/02/17 02:36:35;;;;;;;68.32;61.50;;;;;;;-1.72;100.00;100842.28;5021967;28;20066;-78
2022/02/17 02:39:04;;;;;;;59.40;53.42;;;;;;;-1.69;100.00;100842.06;5032389;28;20492;-80
2022/02/17 02:41:31;;;;;;;66.57;60.08;;;;;;;-1.69;100.00;100836.84;5023716;28;20054;-78
2022/02/17 02:43:59;;;;;;;80.25;67.07;;;;;;;-1.54;100.00;100845.16;5025760;28;20057;-80
2022/02/17 02:46:26;;;;;;;143.77;88.15;;;;;;;-1.51;100.00;100834.50;5028733;28;20169;-79
2022/02/17 02:48:53;;;;;;;162.38;93.93;;;;;;;-1.46;100.00;100838.38;5024795;28;20085;-77
2022/02/17 02:51:20;;;;;;;109.60;82.32;;;;;;;-1.63;100.00;100834.56;5030577;28;20123;-80
2022/02/17 02:53:48;;;;;;;73.70;61.47;;;;;;;-2.21;100.00;100833.16;5026735;28;20056;-81
2022/02/17 02:56:16;;;;;;;66.88;54.30;;;;;;;-2.08;100.00;100826.88;5026194;28;20061;-81
2022/02/17 02:58:43;;;;;;;68.93;59.78;;;;;;;-1.71;100.00;100826.53;5016583;28;20061;-78
2022/02/17 03:01:10;;;;;;;64.20;56.45;;;;;;;-1.81;100.00;100823.03;5117027;22;20065;-80
2022/02/17 03:03:37;;;;;;;71.00;62.45;;;;;;;-1.81;100.00;100822.19;4984687;28;20054;-80
2022/02/17 03:06:04;;;;;;;73.88;66.32;;;;;;;-1.81;100.00;100810.00;4985569;28;20111;-79
2022/02/17 03:08:31;;;;;;;73.25;63.15;;;;;;;-1.84;100.00;100812.84;4989543;28;20050;-80
2022/02/17 03:10:57;;;;;;;75.78;67.15;;;;;;;-1.94;100.00;100810.13;4981454;28;20495;-79
2022/02/17 03:13:26;;;;;;;92.03;81.88;;;;;;;-2.41;100.00;100819.94;4983894;28;20047;-78
2022/02/17 03:15:52;;;;;;;75.60;63.33;;;;;;;-2.03;100.00;100818.69;4990725;28;20364;-79
2022/02/17 03:18:19;;;;;;;63.40;56.53;;;;;;;-2.03;100.00;100815.25;4984869;28;20125;-79
2022/02/17 03:20:47;;;;;;;64.55;57.95;;;;;;;-2.19;100.00;100808.66;4986541;28;20051;-79
2022/02/17 03:23:14;;;;;;;60.88;54.40;;;;;;;-1.86;100.00;100802.56;4989712;28;20129;-80
2022/02/17 03:25:41;;;;;;;66.25;58.25;;;;;;;-1.98;100.00;100802.72;4987860;28;20055;-80
2022/02/17 03:28:08;;;;;;;65.50;55.47;;;;;;;-1.83;100.00;100798.06;4982502;28;20125;-80
2022/02/17 03:30:36;;;;;;;68.00;59.17;;;;;;;-1.54;100.00;100801.72;4990910;28;20055;-81
2022/02/17 03:33:03;;;;;;;76.57;59.97;;;;;;;-1.49;100.00;100801.34;4991088;28;20054;-79
2022/02/17 03:35:30;;;;;;;71.93;58.08;;;;;;;-2.13;100.00;100817.78;4991082;28;20050;-78
2022/02/17 03:37:57;;;;;;;71.13;60.33;;;;;;;-1.73;100.00;100807.59;4986707;28;20120;-79
2022/02/17 03:40:24;;;;;;;69.57;62.10;;;;;;;-1.89;100.00;100805.41;4981991;28;20047;-78
2022/02/17 03:42:51;;;;;;;73.35;60.45;;;;;;;-1.73;100.00;100804.16;4988983;28;20206;-78
2022/02/17 03:45:19;;;;;;;70.35;56.72;;;;;;;-1.79;100.00;100797.66;4978366;28;20050;-78
2022/02/17 03:47:47;;;;;;;68.70;57.50;;;;;;;-1.82;100.00;100797.09;4984925;28;20051;-78
2022/02/17 03:50:14;;;;;;;76.85;68.93;;;;;;;-1.71;100.00;100797.88;4980491;28;20054;-79
2022/02/17 03:52:41;;;;;;;71.57;59.45;;;;;;;-1.96;100.00;100795.63;4988598;28;20050;-78
2022/02/17 03:55:10;;;;;;;64.90;57.08;;;;;;;-2.03;100.00;100790.03;4980587;28;20479;-79
2022/02/17 03:57:36;;;;;;;64.00;57.03;;;;;;;-1.75;100.00;100793.06;4985831;28;20059;-79
2022/02/17 04:00:07;;;;;;;62.75;55.83;;;;;;;-1.87;100.00;100790.50;4992885;28;20054;-80
2022/02/17 04:02:34;;;;;;;61.03;54.53;;;;;;;-1.94;100.00;100796.28;4985698;28;20054;-80
2022/02/17 04:05:02;;;;;;;95.00;78.72;;;;;;;-1.75;100.00;100803.47;4979861;28;20054;-80
2022/02/17 04:07:29;;;;;;;67.72;58.80;;;;;;;-1.95;100.00;100792.06;4986648;28;20061;-79
2022/02/17 04:09:56;;;;;;;67.38;58.95;;;;;;;-1.56;100.00;100784.56;4981895;28;20058;-78
2022/02/17 04:12:24;;;;;;;96.10;67.07;;;;;;;-1.83;100.00;100783.25;4982889;28;20057;-78
2022/02/17 04:14:50;;;;;;;86.20;64.57;;;;;;;-1.70;100.00;100783.91;4985822;28;20046;-78
2022/02/17 04:17:17;;;;;;;78.63;66.22;;;;;;;-1.46;100.00;100783.66;4984521;28;20062;-80
2022/02/17 04:19:44;;;;;;;130.85;114.13;;;;;;;-1.57;100.00;100773.31;4991506;28;20140;-79
2022/02/17 04:22:12;;;;;;;79.22;62.83;;;;;;;-1.30;100.00;100783.25;4997091;28;20116;-79
2022/02/17 04:24:40;;;;;;;73.80;58.20;;;;;;;-1.28;100.00;100765.69;4989505;28;20046;-79
2022/02/17 04:27:07;;;;;;;72.65;57.65;;;;;;;-1.27;100.00;100763.91;4985381;28;20146;-80
2022/02/17 04:29:34;;;;;;;85.32;62.05;;;;;;;-1.56;100.00;100758.53;4983786;28;20046;-80
2022/02/17 04:32:00;;;;;;;76.65;58.88;;;;;;;-1.29;100.00;100758.00;4987995;28;20192;-79
2022/02/17 04:34:27;;;;;;;75.43;61.53;;;;;;;-1.07;100.00;100746.59;4987921;28;20054;-78
2022/02/17 04:36:54;;;;;;;77.65;60.13;;;;;;;-0.99;100.00;100747.63;4989160;28;20051;-80
2022/02/17 04:39:22;;;;;;;73.57;58.75;;;;;;;-1.00;100.00;100745.97;4985617;28;20387;-80
2022/02/17 04:44:33;;;;;;;71.85;60.83;;;;;;;-1.42;100.00;100737.38;4992888;28;20056;-79
2022/02/17 04:47:00;;;;;;;115.03;91.88;;;;;;;-1.74;100.00;100727.00;4989786;28;20486;-79
2022/02/17 04:49:26;;;;;;;128.43;91.97;;;;;;;-2.14;100.00;100720.66;4989484;28;20054;-78
2022/02/17 04:51:53;;;;;;;101.88;79.03;;;;;;;-2.29;100.00;100719.28;4988232;28;20439;-79
2022/02/17 04:54:23;;;;;;;110.68;80.55;;;;;;;-2.54;100.00;100715.22;4984478;28;20081;-81
2022/02/17 04:56:49;;;;;;;126.10;88.68;;;;;;;-2.39;100.00;100718.34;4985305;28;20541;-81
2022/02/17 04:59:16;;;;;;;109.80;78.20;;;;;;;-2.16;100.00;100713.91;4989010;28;20100;-78
2022/02/17 05:01:43;;;;;;;109.57;75.60;;;;;;;-2.31;100.00;100700.34;4990326;28;20097;-79
2022/02/17 05:04:09;;;;;;;109.28;76.68;;;;;;;-2.12;100.00;100708.34;4986344;28;20061;-80
2022/02/17 05:06:36;;;;;;;99.32;71.25;;;;;;;-2.38;100.00;100707.81;4986941;28;20459;-79
2022/02/17 05:09:03;;;;;;;98.05;68.53;;;;;;;-2.29;100.00;100721.06;4986437;28;20059;-79
2022/02/17 05:11:31;;;;;;;102.20;76.90;;;;;;;-2.08;100.00;100712.34;4986893;28;20046;-78
2022/02/17 05:13:58;;;;;;;96.53;70.57;;;;;;;-2.03;100.00;100711.97;4990136;28;20466;-79
2022/02/17 05:16:25;;;;;;;94.30;68.22;;;;;;;-1.96;100.00;100714.91;4984806;28;20042;-80
2022/02/17 05:18:51;;;;;;;91.75;67.95;;;;;;;-1.98;100.00;100722.84;4987177;28;20116;-79
2022/02/17 05:21:18;;;;;;;77.40;60.53;;;;;;;-1.79;100.00;100724.75;4990523;28;20046;-81
2022/02/17 05:23:45;;;;;;;83.85;67.30;;;;;;;-1.76;100.00;100726.28;4990366;28;20046;-78
2022/02/17 05:26:13;;;;;;;93.13;71.05;;;;;;;-2.00;100.00;100713.50;4987594;28;20046;-80
2022/02/17 05:28:41;;;;;;;93.07;68.97;;;;;;;-1.91;100.00;100710.13;4985559;28;20062;-80
2022/02/17 05:31:08;;;;;;;92.38;65.65;;;;;;;-1.80;100.00;100710.09;4984451;28;20117;-78
2022/02/17 05:33:34;;;;;;;91.90;70.55;;;;;;;-1.94;100.00;100705.19;4989770;28;20051;-80
2022/02/17 05:36:01;;;;;;;90.80;70.13;;;;;;;-1.89;100.00;100709.06;4985697;28;20050;-81
2022/02/17 05:38:28;;;;;;;91.85;73.65;;;;;;;-2.18;100.00;100708.84;4975886;28;20396;-77
2022/02/17 05:40:55;;;;;;;118.20;77.57;;;;;;;-2.16;100.00;100714.72;4982933;28;20059;-80
2022/02/17 05:43:22;;;;;;;101.68;73.10;;;;;;;-1.96;100.00;100715.72;4983715;28;20128;-80
2022/02/17 05:45:50;;;;;;;109.38;81.60;;;;;;;-1.82;100.00;100709.38;4990662;28;20578;-81
2022/02/17 05:48:17;;;;;;;113.85;88.25;;;;;;;-1.67;100.00;100715.94;4982305;28;20054;-80
2022/02/17 05:50:44;;;;;;;121.57;93.90;;;;;;;-1.55;100.00;100710.66;4980047;28;20406;-79
2022/02/17 05:53:10;;;;;;;118.30;92.20;;;;;;;-1.47;100.00;100719.50;4993088;28;20054;-78
2022/02/17 05:55:37;;;;;;;105.00;82.40;;;;;;;-1.33;100.00;100712.28;4978927;28;20062;-79
2022/02/17 05:58:04;;;;;;;112.90;86.38;;;;;;;-1.16;100.00;100711.72;4988485;28;20055;-81
2022/02/17 06:00:31;;;;;;;114.90;91.10;;;;;;;-1.16;100.00;100701.28;4987307;28;20120;-78
2022/02/17 06:02:59;;;;;;;117.40;101.25;;;;;;;-1.07;100.00;100702.28;4982732;28;20074;-79
2022/02/17 06:05:25;;;;;;;124.20;98.55;;;;;;;-1.00;100.00;100696.44;4988388;28;20050;-78
2022/02/17 06:07:59;;;;;;;134.57;110.95;;;;;;;-0.72;100.00;100707.91;4982692;28;20046;-80
2022/02/17 06:10:26;;;;;;;115.35;99.60;;;;;;;-0.76;100.00;100701.28;4989167;28;20058;-80
2022/02/17 06:12:52;;;;;;;111.97;97.65;;;;;;;-0.51;100.00;100707.81;4994425;28;20055;-80
2022/02/17 06:15:20;;;;;;;112.40;95.35;;;;;;;-0.31;100.00;100694.78;4990880;28;20046;-81
2022/02/17 06:17:47;;;;;;;102.38;86.32;;;;;;;-0.08;100.00;100695.38;4991350;28;20062;-80
2022/02/17 06:20:15;;;;;;;110.13;94.10;;;;;;;0.60;100.00;100705.72;4991158;28;20058;-80
2022/02/17 06:22:47;;;;;;;125.78;107.03;;;;;;;0.99;100.00;100692.53;4986289;28;20054;-77
2022/02/17 06:25:15;;;;;;;151.95;124.63;;;;;;;1.06;100.00;100694.44;4966749;28;20109;-79
2022/02/17 06:27:42;;;;;;;121.75;100.53;;;;;;;1.14;100.00;100691.09;4992149;28;20053;-79
2022/02/17 06:30:09;;;;;;;113.15;93.57;;;;;;;1.42;100.00;100684.03;4994467;28;20050;-78
2022/02/17 06:32:36;;;;;;;117.95;101.05;;;;;;;1.28;100.00;100687.19;4992398;28;20057;-80
2022/02/17 06:35:03;;;;;;;135.90;98.53;;;;;;;1.37;100.00;100665.38;4988057;28;20059;-79
2022/02/17 06:37:32;;;;;;;108.55;92.38;;;;;;;2.82;100.00;100676.34;4989094;28;20133;-79
2022/02/17 06:39:59;;;;;;;121.18;94.78;;;;;;;1.95;100.00;100672.78;4992827;28;20194;-79
2022/02/17 06:42:36;;;;;;;117.45;94.60;;;;;;;2.25;100.00;100662.88;4995476;28;20046;-78
2022/02/17 06:45:04;;;;;;;115.05;95.20;;;;;;;2.47;100.00;100666.78;4989967;28;20530;-79
2022/02/17 06:47:31;;;;;;;124.38;104.30;;;;;;;2.65;100.00;100662.31;4989056;28;20461;-81
2022/02/17 06:49:58;;;;;;;105.82;92.63;;;;;;;2.94;100.00;100663.78;4987517;28;20054;-81
2022/02/17 06:52:24;;;;;;;108.00;93.03;;;;;;;3.26;100.00;100670.94;4990256;28;20478;-78
2022/02/17 06:54:52;;;;;;;105.70;93.55;;;;;;;3.68;100.00;100662.97;4993334;28;20046;-79
2022/02/17 06:57:22;;;;;;;111.22;99.13;;;;;;;3.95;100.00;100665.47;4993304;28;20431;-78
2022/02/17 06:59:50;;;;;;;144.27;104.22;;;;;;;4.74;100.00;100662.09;4994377;28;20549;-79
2022/02/17 07:02:22;;;;;;;218.95;114.22;;;;;;;5.00;100.00;100659.22;4984960;28;20094;-79
2022/02/17 07:04:49;;;;;;;856.03;354.70;;;;;;;5.20;100.00;100661.41;4996459;28;20360;-79
2022/02/17 07:07:15;;;;;;;671.33;273.95;;;;;;;5.38;100.00;100653.25;4991671;28;20116;-78
2022/02/17 07:09:42;;;;;;;567.88;266.20;;;;;;;5.73;100.00;100644.81;4989119;28;20058;-77
2022/02/17 07:12:12;;;;;;;111.50;90.80;;;;;;;5.45;100.00;100633.16;4992606;28;20039;-81
2022/02/17 07:14:41;;;;;;;118.03;105.95;;;;;;;5.62;100.00;100620.66;4998935;28;20478;-81
2022/02/17 07:17:08;;;;;;;121.35;98.65;;;;;;;6.09;100.00;100617.84;4996525;28;20058;-79
2022/02/17 07:19:35;;;;;;;122.38;103.68;;;;;;;6.81;100.00;100622.56;4993960;28;20054;-82
2022/02/17 07:22:02;;;;;;;159.68;117.30;;;;;;;6.68;100.00;100617.06;4999905;28;20112;-81
2022/02/17 07:24:29;;;;;;;118.70;101.28;;;;;;;6.33;100.00;100619.44;4984537;28;20050;-78
2022/02/17 07:26:56;;;;;;;108.18;96.78;;;;;;;6.63;100.00;100607.09;4992501;28;20407;-80
2022/02/17 07:29:24;;;;;;;106.85;95.57;;;;;;;7.43;100.00;100601.91;4991516;28;20542;-80
2022/02/17 07:31:52;;;;;;;107.80;93.82;;;;;;;7.27;100.00;100600.34;4989315;28;20434;-79
2022/02/17 07:34:19;;;;;;;93.18;83.00;;;;;;;7.90;100.00;100597.88;4989876;28;20423;-79
2022/02/17 07:36:46;;;;;;;94.53;84.60;;;;;;;5.83;100.00;100594.47;4986724;28;20481;-79
2022/02/17 07:39:13;;;;;;;102.20;90.85;;;;;;;5.83;100.00;100583.94;4990601;28;20121;-78
2022/02/17 07:41:40;;;;;;;103.10;92.10;;;;;;;7.00;100.00;100600.03;4988553;28;20443;-80
2022/02/17 07:44:09;;;;;;;103.32;93.40;;;;;;;8.80;100.00;100586.44;4997037;28;20042;-81
2022/02/17 07:46:37;;;;;;;106.38;95.50;;;;;;;8.14;100.00;100581.59;4991791;28;20537;-79
2022/02/17 07:49:04;;;;;;;106.25;95.05;;;;;;;7.18;100.00;100578.50;4993400;28;20057;-79
2022/02/17 07:51:32;;;;;;;99.47;89.80;;;;;;;9.15;100.00;100581.06;4990578;28;20051;-80
2022/02/17 07:53:59;;;;;;;100.30;89.85;;;;;;;9.30;100.00;100578.25;4995325;28;20051;-81
2022/02/17 07:56:25;;;;;;;106.47;95.63;;;;;;;10.14;100.00;100584.84;4990709;28;20085;-78
2022/02/17 07:58:52;;;;;;;102.53;92.70;;;;;;;10.25;100.00;100586.84;4996444;28;20456;-82
2022/02/17 08:01:19;;;;;;;95.63;86.18;;;;;;;9.46;100.00;100577.06;4993802;28;20471;-82
2022/02/17 08:03:47;;;;;;;97.93;87.90;;;;;;;10.76;100.00;100576.31;4989574;28;20053;-82
2022/02/17 08:06:14;;;;;;;94.05;84.43;;;;;;;8.68;100.00;100572.97;5006973;28;20047;-78
2022/02/17 08:08:47;;;;;;;93.68;84.25;;;;;;;8.55;100.00;100575.53;4998394;28;20054;-79
2022/02/17 08:11:14;;;;;;;97.38;87.47;;;;;;;8.82;100.00;100568.53;4994192;28;20089;-79
2022/02/17 08:13:41;;;;;;;94.30;84.60;;;;;;;8.66;100.00;100559.09;4993779;28;20113;-79
2022/02/17 08:16:07;;;;;;;89.93;80.53;;;;;;;9.37;100.00;100553.38;4989805;28;20046;-78
2022/02/17 08:18:34;;;;;;;92.50;82.25;;;;;;;9.89;100.00;100550.97;4994498;28;20058;-81
2022/02/17 08:21:03;;;;;;;98.00;87.72;;;;;;;11.18;100.00;100544.03;4993909;28;20062;-80
2022/02/17 08:23:31;;;;;;;100.05;90.25;;;;;;;12.02;100.00;100547.31;4991745;28;20298;-78
2022/02/17 08:26:00;;;;;;;100.95;90.43;;;;;;;10.61;100.00;100546.56;5000416;28;20056;-79
2022/02/17 08:28:26;;;;;;;97.90;87.75;;;;;;;10.46;100.00;100546.00;5003813;28;20030;-78
2022/02/17 08:30:53;;;;;;;95.30;85.55;;;;;;;11.42;100.00;100532.63;4998992;28;20046;-78
2022/02/17 08:33:20;;;;;;;97.75;87.38;;;;;;;10.65;100.00;100545.13;4999082;28;20553;-81
2022/02/17 08:35:47;;;;;;;99.05;89.10;;;;;;;10.74;100.00;100527.91;4990273;28;20065;-79
2022/02/17 08:38:15;;;;;;;97.45;87.28;;;;;;;12.45;100.00;100525.16;5001815;28;20059;-79
2022/02/17 08:40:42;;;;;;;94.78;85.63;;;;;;;12.47;100.00;100523.09;5001015;28;20050;-81
2022/02/17 08:43:13;;;;;;;94.75;85.63;;;;;;;11.63;100.00;100522.66;4999344;28;20050;-79
2022/02/17 08:45:44;;;;;;;97.50;87.75;;;;;;;12.52;100.00;100521.34;4989130;28;20053;-79
2022/02/17 08:48:12;;;;;;;91.68;82.93;;;;;;;10.83;100.00;100517.84;4999006;28;20502;-81
2022/02/17 08:50:39;;;;;;;97.47;88.28;;;;;;;11.61;100.00;100520.19;4990529;28;20113;-81
2022/02/17 08:53:07;;;;;;;94.30;84.95;;;;;;;8.47;100.00;100506.88;4989876;28;20137;-79
2022/02/17 08:55:35;;;;;;;92.15;83.07;;;;;;;10.65;100.00;100513.25;4994380;28;20450;-81
2022/02/17 08:58:02;;;;;;;89.55;80.78;;;;;;;8.27;100.00;100510.22;4987040;28;20538;-77
2022/02/17 09:00:29;;;;;;;88.75;80.32;;;;;;;12.65;100.00;100507.09;5000609;28;20058;-80
2022/02/17 09:02:55;;;;;;;90.03;81.60;;;;;;;12.53;100.00;100492.88;4991007;28;20137;-79
2022/02/17 09:05:27;;;;;;;91.22;81.85;;;;;;;13.25;100.00;100492.94;5000270;28;20116;-81
2022/02/17 09:07:54;;;;;;;90.15;80.70;;;;;;;10.92;100.00;100487.38;4989745;28;20042;-80
2022/02/17 09:10:22;;;;;;;97.20;87.95;;;;;;;11.38;100.00;100485.41;5006029;28;20086;-79
2022/02/17 09:12:50;;;;;;;96.50;87.22;;;;;;;13.35;100.00;100471.84;4999247;28;20372;-78
2022/02/17 09:15:18;;;;;;;100.00;90.10;;;;;;;14.14;100.00;100474.16;4990438;28;20458;-79
2022/02/17 09:17:46;;;;;;;96.13;86.97;;;;;;;11.60;100.00;100470.69;4997319;28;20115;-79
2022/02/17 09:20:15;;;;;;;94.30;85.80;;;;;;;14.01;100.00;100464.56;5008183;28;20074;-80
2022/02/17 09:22:43;;;;;;;93.32;85.07;;;;;;;14.63;99.75;100467.41;4992119;28;20086;-80
2022/02/17 09:25:10;;;;;;;100.05;90.65;;;;;;;14.10;100.00;100459.63;5000363;28;20105;-79
2022/02/17 09:27:37;;;;;;;93.63;85.00;;;;;;;15.53;95.37;100448.88;4997231;28;20042;-80
2022/02/17 09:30:08;;;;;;;89.45;81.20;;;;;;;11.82;100.00;100451.66;5002580;28;20057;-81
2022/02/17 09:32:36;;;;;;;93.10;84.40;;;;;;;15.95;98.65;100438.53;4996354;28;20082;-79
2022/02/17 09:35:03;;;;;;;97.00;87.85;;;;;;;15.42;93.19;100439.06;4999069;28;20050;-81
2022/02/17 09:37:30;;;;;;;96.70;87.05;;;;;;;13.34;100.00;100426.72;5005849;28;20112;-78
2022/02/17 09:39:57;;;;;;;98.95;89.28;;;;;;;12.57;100.00;100427.47;5004945;28;20055;-79
2022/02/17 09:42:24;;;;;;;90.97;82.20;;;;;;;14.00;97.49;100422.84;4997568;28;20051;-78
2022/02/17 09:44:50;;;;;;;90.30;81.55;;;;;;;14.34;96.85;100415.81;5002191;28;20497;-78
2022/02/17 09:47:18;;;;;;;87.53;79.18;;;;;;;13.45;95.62;100410.72;4999537;28;20078;-79
2022/02/17 09:49:45;;;;;;;101.28;91.93;;;;;;;16.33;92.87;100404.66;5001600;28;20052;-78
2022/02/17 09:52:13;;;;;;;95.35;87.05;;;;;;;13.49;87.73;100403.06;5002366;28;20048;-80
2022/02/17 09:54:41;;;;;;;94.47;86.30;;;;;;;16.63;89.15;100395.31;5003190;28;20069;-80
2022/02/17 09:57:08;;;;;;;96.40;87.43;;;;;;;15.01;90.28;100391.09;4994253;28;20054;-79
2022/02/17 09:59:35;;;;;;;97.50;88.53;;;;;;;15.36;96.09;100395.34;5003665;28;20085;-79
2022/02/17 10:02:04;;;;;;;98.65;89.93;;;;;;;16.63;84.50;100388.09;4993231;28;20109;-79
2022/02/17 10:04:33;;;;;;;97.00;87.32;;;;;;;13.81;100.00;100384.81;4999083;28;20077;-80
2022/02/17 10:07:02;;;;;;;100.70;89.65;;;;;;;12.03;100.00;100382.06;5000096;28;20052;-79
2022/02/17 10:09:37;;;;;;;94.28;84.88;;;;;;;12.22;100.00;100382.03;4996090;28;20054;-79
2022/02/17 10:12:05;;;;;;;103.72;91.70;;;;;;;12.91;100.00;100380.63;4993781;28;20458;-79
2022/02/17 10:14:33;;;;;;;103.95;92.50;;;;;;;13.15;100.00;100383.31;4997614;28;20085;-79
2022/02/17 10:17:03;;;;;;;98.28;88.90;;;;;;;16.56;100.00;100376.78;5002604;28;20046;-78
2022/02/17 10:19:37;;;;;;;95.97;85.50;;;;;;;14.66;100.00;100372.59;4993227;28;20089;-79
2022/02/17 10:22:07;;;;;;;120.95;95.70;;;;;;;13.65;100.00;100370.34;5004807;28;20081;-78
2022/02/17 10:24:39;;;;;;;119.53;97.88;;;;;;;13.61;100.00;100355.84;5001694;28;20485;-78
2022/02/17 10:27:08;;;;;;;99.40;89.07;;;;;;;14.58;100.00;100351.59;5001604;28;20054;-80
2022/02/17 10:29:40;;;;;;;123.53;99.70;;;;;;;12.90;100.00;100343.56;4994242;28;20047;-81
2022/02/17 10:32:08;;;;;;;;;;;;;;;13.11;100.00;100340.31;5005386;28;20474;-80
2022/02/17 10:34:37;;;;;;;98.72;87.65;;;;;;;14.73;100.00;100335.00;5005601;28;19922;-80
2022/02/17 10:37:04;;;;;;;97.15;87.45;;;;;;;16.87;100.00;100331.47;4997010;28;20058;-79
2022/02/17 10:39:43;;;;;;;105.55;94.47;;;;;;;15.04;100.00;100323.75;5001864;28;20046;-79
2022/02/17 10:42:13;;;;;;;97.68;88.22;;;;;;;14.63;100.00;100317.75;5004936;28;20384;-80
2022/02/17 10:44:44;;;;;;;93.10;84.40;;;;;;;16.51;96.27;100322.28;4997328;28;20062;-82
2022/02/17 10:47:17;;;;;;;93.75;84.95;;;;;;;17.43;95.68;100323.78;5000723;28;20514;-81
2022/02/17 10:49:49;;;;;;;93.05;85.00;;;;;;;16.47;85.94;100312.06;4996229;28;20113;-79
2022/02/17 10:52:28;;;;;;;88.50;80.03;;;;;;;16.82;82.25;100301.91;4994155;28;20050;-78
2022/02/17 10:55:13;;;;;;;90.25;82.18;;;;;;;16.83;85.59;100303.56;4992112;28;20537;-80
2022/02/17 10:57:40;;;;;;;92.38;84.13;;;;;;;15.42;83.60;100294.56;4993730;28;20050;-79
2022/02/17 11:00:18;;;;;;;92.57;84.25;;;;;;;14.56;97.60;100303.75;5008476;28;20069;-79
2022/02/17 11:02:52;;;;;;;87.35;78.65;;;;;;;14.29;100.00;100292.81;4996928;28;20102;-78
2022/02/17 11:05:27;;;;;;;92.18;83.05;;;;;;;14.26;95.34;100284.50;5003486;28;20062;-78